sensor_id;sensor_type;location;lat;lon;timestamp;P1;durP1;ratioP1;P2;durP2;ratioP2
65799;SDS011;52544;48.116;11.660;2023-05-29T00:01:23;16.05;;;7.97;;
65799;SDS011;52544;48.116;11.660;2023-05-29T00:03:49;14.93;;;7.78;;
65799;SDS011;52544;48.116;11.660;2023-05-29T00:06:14;18.15;;;7.88;;
65799;SDS011;52544;48.116;11.660;2023-05-29T00:08:40;16.70;;;8.05;;
65799;SDS011;52544;48.116;11.660;2023-05-29T00:11:05;15.27;;;7.95;;
65799;SDS011;52544;48.116;11.660;2023-05-29T00:13:31;18.10;;;8.02;;
65799;SDS011;52544;48.116;11.660;2023-05-29T00:15:56;16.05;;;8.23;;
65799;SDS011;52544;48.116;11.660;2023-05-29T00:18:21;15.50;;;8.38;;
65799;SDS011;52544;48.116;11.660;2023-05-29T00:20:47;16.60;;;8.20;;
65799;SDS011;52544;48.116;11.660;2023-05-29T00:23:13;14.50;;;7.38;;
65799;SDS011;52544;48.116;11.660;2023-05-29T00:25:38;13.25;;;7.55;;
65799;SDS011;52544;48.116;11.660;2023-05-29T00:28:06;17.25;;;7.45;;
65799;SDS011;52544;48.116;11.660;2023-05-29T00:30:32;14.07;;;7.45;;
65799;SDS011;52544;48.116;11.660;2023-05-29T00:32:57;14.60;;;7.32;;
65799;SDS011;52544;48.116;11.660;2023-05-29T00:35:23;13.80;;;7.28;;
65799;SDS011;52544;48.116;11.660;2023-05-29T00:37:49;14.18;;;7.43;;
65799;SDS011;52544;48.116;11.660;2023-05-29T00:40:14;13.30;;;7.10;;
65799;SDS011;52544;48.116;11.660;2023-05-29T00:42:40;14.38;;;7.15;;
65799;SDS011;52544;48.116;11.660;2023-05-29T00:45:05;15.35;;;6.85;;
65799;SDS011;52544;48.116;11.660;2023-05-29T00:47:32;12.80;;;6.63;;
65799;SDS011;52544;48.116;11.660;2023-05-29T00:49:57;12.43;;;6.55;;
65799;SDS011;52544;48.116;11.660;2023-05-29T00:52:23;16.02;;;7.30;;
65799;SDS011;52544;48.116;11.660;2023-05-29T00:54:50;15.90;;;7.18;;
65799;SDS011;52544;48.116;11.660;2023-05-29T00:57:17;13.75;;;7.00;;
65799;SDS011;52544;48.116;11.660;2023-05-29T00:59:42;12.27;;;5.75;;
65799;SDS011;52544;48.116;11.660;2023-05-29T01:02:09;12.10;;;6.38;;
65799;SDS011;52544;48.116;11.660;2023-05-29T01:04:35;12.70;;;6.57;;
65799;SDS011;52544;48.116;11.660;2023-05-29T01:07:01;10.48;;;5.85;;
65799;SDS011;52544;48.116;11.660;2023-05-29T01:09:28;11.23;;;5.80;;
65799;SDS011;52544;48.116;11.660;2023-05-29T01:17:24;12.18;;;5.88;;
65799;SDS011;52544;48.116;11.660;2023-05-29T01:25:46;11.80;;;5.60;;
65799;SDS011;52544;48.116;11.660;2023-05-29T01:28:24;16.02;;;6.28;;
65799;SDS011;52544;48.116;11.660;2023-05-29T01:30:52;10.25;;;5.53;;
65799;SDS011;52544;48.116;11.660;2023-05-29T01:33:19;14.45;;;5.88;;
65799;SDS011;52544;48.116;11.660;2023-05-29T01:35:45;10.95;;;5.90;;
65799;SDS011;52544;48.116;11.660;2023-05-29T01:38:10;9.05;;;5.55;;
65799;SDS011;52544;48.116;11.660;2023-05-29T01:40:36;11.68;;;5.50;;
65799;SDS011;52544;48.116;11.660;2023-05-29T01:43:02;11.20;;;5.57;;
65799;SDS011;52544;48.116;11.660;2023-05-29T01:45:28;12.23;;;6.00;;
65799;SDS011;52544;48.116;11.660;2023-05-29T01:47:54;13.57;;;6.93;;
65799;SDS011;52544;48.116;11.660;2023-05-29T01:50:20;11.02;;;6.10;;
65799;SDS011;52544;48.116;11.660;2023-05-29T01:52:48;13.20;;;6.43;;
65799;SDS011;52544;48.116;11.660;2023-05-29T01:55:14;13.48;;;5.65;;
65799;SDS011;52544;48.116;11.660;2023-05-29T01:57:40;14.73;;;5.88;;
65799;SDS011;52544;48.116;11.660;2023-05-29T02:00:06;9.02;;;5.40;;
65799;SDS011;52544;48.116;11.660;2023-05-29T02:02:39;12.13;;;6.25;;
65799;SDS011;52544;48.116;11.660;2023-05-29T02:05:07;12.18;;;6.05;;
65799;SDS011;52544;48.116;11.660;2023-05-29T02:07:36;9.48;;;5.25;;
65799;SDS011;52544;48.116;11.660;2023-05-29T02:10:06;11.15;;;5.55;;
65799;SDS011;52544;48.116;11.660;2023-05-29T02:12:31;8.77;;;5.13;;
65799;SDS011;52544;48.116;11.660;2023-05-29T02:14:57;9.90;;;5.45;;
65799;SDS011;52544;48.116;11.660;2023-05-29T02:17:22;11.77;;;5.63;;
65799;SDS011;52544;48.116;11.660;2023-05-29T02:19:48;11.30;;;5.15;;
65799;SDS011;52544;48.116;11.660;2023-05-29T02:22:14;12.45;;;5.65;;
65799;SDS011;52544;48.116;11.660;2023-05-29T02:24:39;12.73;;;5.60;;
65799;SDS011;52544;48.116;11.660;2023-05-29T02:27:04;15.02;;;5.88;;
65799;SDS011;52544;48.116;11.660;2023-05-29T02:29:30;11.55;;;5.50;;
65799;SDS011;52544;48.116;11.660;2023-05-29T02:31:55;11.15;;;4.90;;
65799;SDS011;52544;48.116;11.660;2023-05-29T02:34:21;10.00;;;5.05;;
65799;SDS011;52544;48.116;11.660;2023-05-29T02:36:49;10.25;;;5.45;;
65799;SDS011;52544;48.116;11.660;2023-05-29T02:39:17;11.82;;;5.22;;
65799;SDS011;52544;48.116;11.660;2023-05-29T02:41:43;12.00;;;4.90;;
65799;SDS011;52544;48.116;11.660;2023-05-29T02:44:08;9.68;;;5.32;;
65799;SDS011;52544;48.116;11.660;2023-05-29T02:46:34;12.25;;;5.00;;
65799;SDS011;52544;48.116;11.660;2023-05-29T02:48:59;11.25;;;5.60;;
65799;SDS011;52544;48.116;11.660;2023-05-29T02:51:25;11.30;;;5.93;;
65799;SDS011;52544;48.116;11.660;2023-05-29T02:53:50;10.38;;;5.72;;
65799;SDS011;52544;48.116;11.660;2023-05-29T02:56:15;9.30;;;5.30;;
65799;SDS011;52544;48.116;11.660;2023-05-29T02:58:41;10.68;;;5.57;;
65799;SDS011;52544;48.116;11.660;2023-05-29T03:01:07;10.32;;;5.28;;
65799;SDS011;52544;48.116;11.660;2023-05-29T03:03:33;10.35;;;5.22;;
65799;SDS011;52544;48.116;11.660;2023-05-29T03:05:58;11.27;;;5.20;;
65799;SDS011;52544;48.116;11.660;2023-05-29T03:08:25;11.20;;;5.13;;
65799;SDS011;52544;48.116;11.660;2023-05-29T03:10:52;10.68;;;5.18;;
65799;SDS011;52544;48.116;11.660;2023-05-29T03:13:18;10.68;;;5.03;;
65799;SDS011;52544;48.116;11.660;2023-05-29T03:15:44;9.50;;;5.07;;
65799;SDS011;52544;48.116;11.660;2023-05-29T03:18:09;10.10;;;4.65;;
65799;SDS011;52544;48.116;11.660;2023-05-29T03:20:34;10.52;;;5.15;;
65799;SDS011;52544;48.116;11.660;2023-05-29T03:23:00;9.57;;;5.05;;
65799;SDS011;52544;48.116;11.660;2023-05-29T03:25:26;9.40;;;4.90;;
65799;SDS011;52544;48.116;11.660;2023-05-29T03:27:51;10.52;;;5.35;;
65799;SDS011;52544;48.116;11.660;2023-05-29T03:30:17;9.57;;;4.93;;
65799;SDS011;52544;48.116;11.660;2023-05-29T03:32:44;9.50;;;5.18;;
65799;SDS011;52544;48.116;11.660;2023-05-29T03:35:10;10.82;;;5.22;;
65799;SDS011;52544;48.116;11.660;2023-05-29T03:37:35;7.75;;;4.80;;
65799;SDS011;52544;48.116;11.660;2023-05-29T03:40:01;11.50;;;4.80;;
65799;SDS011;52544;48.116;11.660;2023-05-29T03:42:26;9.40;;;5.43;;
65799;SDS011;52544;48.116;11.660;2023-05-29T03:44:51;8.68;;;4.43;;
65799;SDS011;52544;48.116;11.660;2023-05-29T03:47:17;9.13;;;4.55;;
65799;SDS011;52544;48.116;11.660;2023-05-29T03:49:42;8.02;;;4.95;;
65799;SDS011;52544;48.116;11.660;2023-05-29T03:52:07;9.75;;;4.50;;
65799;SDS011;52544;48.116;11.660;2023-05-29T03:54:33;11.50;;;4.68;;
65799;SDS011;52544;48.116;11.660;2023-05-29T03:56:58;11.55;;;5.18;;
65799;SDS011;52544;48.116;11.660;2023-05-29T03:59:24;10.15;;;5.45;;
65799;SDS011;52544;48.116;11.660;2023-05-29T04:01:49;10.73;;;4.88;;
65799;SDS011;52544;48.116;11.660;2023-05-29T04:04:14;8.65;;;4.65;;
65799;SDS011;52544;48.116;11.660;2023-05-29T04:06:40;10.45;;;5.43;;
65799;SDS011;52544;48.116;11.660;2023-05-29T04:09:06;10.15;;;5.25;;
65799;SDS011;52544;48.116;11.660;2023-05-29T04:11:32;8.18;;;5.45;;
65799;SDS011;52544;48.116;11.660;2023-05-29T04:13:59;11.30;;;5.45;;
65799;SDS011;52544;48.116;11.660;2023-05-29T04:16:25;9.10;;;4.90;;
65799;SDS011;52544;48.116;11.660;2023-05-29T04:18:51;9.95;;;4.93;;
65799;SDS011;52544;48.116;11.660;2023-05-29T04:21:17;8.52;;;4.90;;
65799;SDS011;52544;48.116;11.660;2023-05-29T04:23:42;8.10;;;5.10;;
65799;SDS011;52544;48.116;11.660;2023-05-29T04:26:08;9.75;;;5.03;;
65799;SDS011;52544;48.116;11.660;2023-05-29T04:28:33;8.00;;;4.57;;
65799;SDS011;52544;48.116;11.660;2023-05-29T04:30:58;10.13;;;5.10;;
65799;SDS011;52544;48.116;11.660;2023-05-29T04:33:24;9.93;;;5.32;;
65799;SDS011;52544;48.116;11.660;2023-05-29T04:35:50;10.40;;;5.53;;
65799;SDS011;52544;48.116;11.660;2023-05-29T04:38:15;10.88;;;5.30;;
65799;SDS011;52544;48.116;11.660;2023-05-29T04:40:42;12.27;;;5.78;;
65799;SDS011;52544;48.116;11.660;2023-05-29T04:43:08;10.50;;;4.55;;
65799;SDS011;52544;48.116;11.660;2023-05-29T04:45:34;8.65;;;4.68;;
65799;SDS011;52544;48.116;11.660;2023-05-29T04:48:02;10.35;;;4.97;;
65799;SDS011;52544;48.116;11.660;2023-05-29T04:50:28;11.07;;;5.30;;
65799;SDS011;52544;48.116;11.660;2023-05-29T04:52:56;9.88;;;4.95;;
65799;SDS011;52544;48.116;11.660;2023-05-29T04:55:22;10.07;;;4.93;;
65799;SDS011;52544;48.116;11.660;2023-05-29T04:57:48;9.45;;;5.45;;
65799;SDS011;52544;48.116;11.660;2023-05-29T05:00:13;13.45;;;7.40;;
65799;SDS011;52544;48.116;11.660;2023-05-29T05:02:42;11.20;;;5.90;;
65799;SDS011;52544;48.116;11.660;2023-05-29T05:05:08;10.27;;;5.75;;
65799;SDS011;52544;48.116;11.660;2023-05-29T05:07:34;15.50;;;5.90;;
65799;SDS011;52544;48.116;11.660;2023-05-29T05:10:00;11.98;;;5.93;;
65799;SDS011;52544;48.116;11.660;2023-05-29T05:12:25;11.95;;;5.30;;
65799;SDS011;52544;48.116;11.660;2023-05-29T05:14:51;13.07;;;6.10;;
65799;SDS011;52544;48.116;11.660;2023-05-29T05:17:16;11.57;;;6.07;;
65799;SDS011;52544;48.116;11.660;2023-05-29T05:19:42;13.70;;;6.78;;
65799;SDS011;52544;48.116;11.660;2023-05-29T05:22:07;13.32;;;6.40;;
65799;SDS011;52544;48.116;11.660;2023-05-29T05:24:33;13.82;;;6.70;;
65799;SDS011;52544;48.116;11.660;2023-05-29T05:26:59;12.98;;;6.43;;
65799;SDS011;52544;48.116;11.660;2023-05-29T05:29:25;12.90;;;6.50;;
65799;SDS011;52544;48.116;11.660;2023-05-29T05:31:50;13.30;;;7.20;;
65799;SDS011;52544;48.116;11.660;2023-05-29T05:34:16;11.27;;;5.97;;
65799;SDS011;52544;48.116;11.660;2023-05-29T05:36:41;12.57;;;6.22;;
65799;SDS011;52544;48.116;11.660;2023-05-29T05:39:06;14.52;;;6.57;;
65799;SDS011;52544;48.116;11.660;2023-05-29T05:41:32;13.93;;;6.50;;
65799;SDS011;52544;48.116;11.660;2023-05-29T05:43:57;12.27;;;6.20;;
65799;SDS011;52544;48.116;11.660;2023-05-29T05:46:23;15.73;;;6.63;;
65799;SDS011;52544;48.116;11.660;2023-05-29T05:48:48;12.90;;;5.60;;
65799;SDS011;52544;48.116;11.660;2023-05-29T05:51:14;12.85;;;6.43;;
65799;SDS011;52544;48.116;11.660;2023-05-29T05:53:39;11.93;;;6.18;;
65799;SDS011;52544;48.116;11.660;2023-05-29T05:56:05;15.35;;;6.88;;
65799;SDS011;52544;48.116;11.660;2023-05-29T05:58:30;12.85;;;6.32;;
65799;SDS011;52544;48.116;11.660;2023-05-29T06:00:56;12.88;;;6.13;;
65799;SDS011;52544;48.116;11.660;2023-05-29T06:03:22;17.02;;;6.70;;
65799;SDS011;52544;48.116;11.660;2023-05-29T06:05:47;14.07;;;6.25;;
65799;SDS011;52544;48.116;11.660;2023-05-29T06:08:13;11.45;;;6.32;;
65799;SDS011;52544;48.116;11.660;2023-05-29T06:10:40;10.30;;;5.32;;
65799;SDS011;52544;48.116;11.660;2023-05-29T06:13:05;11.05;;;6.10;;
65799;SDS011;52544;48.116;11.660;2023-05-29T06:15:31;11.75;;;5.93;;
65799;SDS011;52544;48.116;11.660;2023-05-29T06:17:57;11.45;;;5.78;;
65799;SDS011;52544;48.116;11.660;2023-05-29T06:20:22;13.10;;;6.10;;
65799;SDS011;52544;48.116;11.660;2023-05-29T06:22:48;12.32;;;5.75;;
65799;SDS011;52544;48.116;11.660;2023-05-29T06:25:16;12.68;;;5.90;;
65799;SDS011;52544;48.116;11.660;2023-05-29T06:27:43;14.20;;;5.50;;
65799;SDS011;52544;48.116;11.660;2023-05-29T06:30:09;10.93;;;5.55;;
65799;SDS011;52544;48.116;11.660;2023-05-29T06:32:35;9.10;;;5.47;;
65799;SDS011;52544;48.116;11.660;2023-05-29T06:35:00;12.57;;;4.88;;
65799;SDS011;52544;48.116;11.660;2023-05-29T06:37:26;11.43;;;5.07;;
65799;SDS011;52544;48.116;11.660;2023-05-29T06:39:51;8.65;;;5.20;;
65799;SDS011;52544;48.116;11.660;2023-05-29T06:42:17;14.13;;;5.32;;
65799;SDS011;52544;48.116;11.660;2023-05-29T06:44:42;7.38;;;4.50;;
65799;SDS011;52544;48.116;11.660;2023-05-29T06:47:07;8.88;;;5.32;;
65799;SDS011;52544;48.116;11.660;2023-05-29T06:49:33;10.40;;;5.13;;
65799;SDS011;52544;48.116;11.660;2023-05-29T06:51:58;10.30;;;5.40;;
65799;SDS011;52544;48.116;11.660;2023-05-29T06:54:24;12.88;;;5.35;;
65799;SDS011;52544;48.116;11.660;2023-05-29T06:56:50;11.30;;;6.10;;
65799;SDS011;52544;48.116;11.660;2023-05-29T06:59:15;9.73;;;5.22;;
65799;SDS011;52544;48.116;11.660;2023-05-29T07:01:41;9.32;;;5.53;;
65799;SDS011;52544;48.116;11.660;2023-05-29T07:04:06;9.77;;;5.20;;
65799;SDS011;52544;48.116;11.660;2023-05-29T07:06:32;11.15;;;5.38;;
65799;SDS011;52544;48.116;11.660;2023-05-29T07:08:58;9.48;;;5.43;;
65799;SDS011;52544;48.116;11.660;2023-05-29T07:11:24;9.45;;;5.47;;
65799;SDS011;52544;48.116;11.660;2023-05-29T07:13:51;11.57;;;5.68;;
65799;SDS011;52544;48.116;11.660;2023-05-29T07:16:18;11.75;;;5.93;;
65799;SDS011;52544;48.116;11.660;2023-05-29T07:18:44;11.90;;;5.32;;
65799;SDS011;52544;48.116;11.660;2023-05-29T07:21:10;9.80;;;5.07;;
65799;SDS011;52544;48.116;11.660;2023-05-29T07:23:35;12.95;;;5.53;;
65799;SDS011;52544;48.116;11.660;2023-05-29T07:26:01;12.57;;;5.65;;
65799;SDS011;52544;48.116;11.660;2023-05-29T07:28:26;13.18;;;6.03;;
65799;SDS011;52544;48.116;11.660;2023-05-29T07:30:52;12.27;;;5.68;;
65799;SDS011;52544;48.116;11.660;2023-05-29T07:33:17;12.23;;;5.97;;
65799;SDS011;52544;48.116;11.660;2023-05-29T07:35:42;11.68;;;5.53;;
65799;SDS011;52544;48.116;11.660;2023-05-29T07:38:08;11.95;;;5.28;;
65799;SDS011;52544;48.116;11.660;2023-05-29T07:40:33;12.38;;;6.07;;
65799;SDS011;52544;48.116;11.660;2023-05-29T07:42:58;10.20;;;5.65;;
65799;SDS011;52544;48.116;11.660;2023-05-29T07:45:24;11.90;;;5.90;;
65799;SDS011;52544;48.116;11.660;2023-05-29T07:47:49;11.23;;;5.75;;
65799;SDS011;52544;48.116;11.660;2023-05-29T07:50:15;11.65;;;5.13;;
65799;SDS011;52544;48.116;11.660;2023-05-29T07:52:41;9.40;;;5.18;;
65799;SDS011;52544;48.116;11.660;2023-05-29T07:55:07;10.15;;;5.85;;
65799;SDS011;52544;48.116;11.660;2023-05-29T07:57:33;11.85;;;5.82;;
65799;SDS011;52544;48.116;11.660;2023-05-29T07:59:58;10.70;;;5.38;;
65799;SDS011;52544;48.116;11.660;2023-05-29T08:02:24;8.52;;;5.45;;
65799;SDS011;52544;48.116;11.660;2023-05-29T08:04:49;13.45;;;5.85;;
65799;SDS011;52544;48.116;11.660;2023-05-29T08:07:15;10.25;;;5.38;;
65799;SDS011;52544;48.116;11.660;2023-05-29T08:09:40;9.77;;;5.53;;
65799;SDS011;52544;48.116;11.660;2023-05-29T08:12:06;12.05;;;5.25;;
65799;SDS011;52544;48.116;11.660;2023-05-29T08:14:31;11.93;;;5.90;;
65799;SDS011;52544;48.116;11.660;2023-05-29T08:16:57;10.60;;;5.93;;
65799;SDS011;52544;48.116;11.660;2023-05-29T08:19:23;13.27;;;5.60;;
65799;SDS011;52544;48.116;11.660;2023-05-29T08:21:48;10.55;;;5.72;;
65799;SDS011;52544;48.116;11.660;2023-05-29T08:24:14;12.32;;;5.63;;
65799;SDS011;52544;48.116;11.660;2023-05-29T08:26:39;7.65;;;4.95;;
65799;SDS011;52544;48.116;11.660;2023-05-29T08:29:05;9.95;;;5.78;;
65799;SDS011;52544;48.116;11.660;2023-05-29T08:31:30;12.18;;;5.55;;
65799;SDS011;52544;48.116;11.660;2023-05-29T08:33:56;11.15;;;5.30;;
65799;SDS011;52544;48.116;11.660;2023-05-29T08:36:21;12.85;;;5.63;;
65799;SDS011;52544;48.116;11.660;2023-05-29T08:38:49;9.23;;;5.13;;
65799;SDS011;52544;48.116;11.660;2023-05-29T08:44:13;13.88;;;7.25;;
65799;SDS011;52544;48.116;11.660;2023-05-29T08:46:42;10.30;;;5.32;;
65799;SDS011;52544;48.116;11.660;2023-05-29T08:49:08;12.35;;;5.68;;
65799;SDS011;52544;48.116;11.660;2023-05-29T08:51:37;10.55;;;5.18;;
65799;SDS011;52544;48.116;11.660;2023-05-29T08:54:06;11.02;;;5.45;;
65799;SDS011;52544;48.116;11.660;2023-05-29T08:56:31;12.93;;;5.60;;
65799;SDS011;52544;48.116;11.660;2023-05-29T08:58:57;8.82;;;5.20;;
65799;SDS011;52544;48.116;11.660;2023-05-29T09:01:22;10.32;;;5.22;;
65799;SDS011;52544;48.116;11.660;2023-05-29T09:03:48;10.73;;;4.88;;
65799;SDS011;52544;48.116;11.660;2023-05-29T09:06:14;11.65;;;5.78;;
65799;SDS011;52544;48.116;11.660;2023-05-29T09:08:39;10.60;;;5.40;;
65799;SDS011;52544;48.116;11.660;2023-05-29T09:11:04;9.82;;;5.32;;
65799;SDS011;52544;48.116;11.660;2023-05-29T09:13:30;9.77;;;5.35;;
65799;SDS011;52544;48.116;11.660;2023-05-29T09:15:57;10.63;;;5.53;;
65799;SDS011;52544;48.116;11.660;2023-05-29T09:18:23;12.75;;;5.57;;
65799;SDS011;52544;48.116;11.660;2023-05-29T09:20:49;10.07;;;5.38;;
65799;SDS011;52544;48.116;11.660;2023-05-29T09:23:14;11.98;;;5.00;;
65799;SDS011;52544;48.116;11.660;2023-05-29T09:25:41;11.20;;;4.78;;
65799;SDS011;52544;48.116;11.660;2023-05-29T09:28:11;12.52;;;5.75;;
65799;SDS011;52544;48.116;11.660;2023-05-29T09:30:40;10.68;;;5.28;;
65799;SDS011;52544;48.116;11.660;2023-05-29T09:33:07;9.13;;;4.97;;
65799;SDS011;52544;48.116;11.660;2023-05-29T09:35:37;10.02;;;5.07;;
65799;SDS011;52544;48.116;11.660;2023-05-29T09:38:10;10.15;;;4.78;;
65799;SDS011;52544;48.116;11.660;2023-05-29T09:40:37;8.82;;;4.22;;
65799;SDS011;52544;48.116;11.660;2023-05-29T09:43:12;8.95;;;4.82;;
65799;SDS011;52544;48.116;11.660;2023-05-29T09:45:42;10.63;;;5.07;;
65799;SDS011;52544;48.116;11.660;2023-05-29T09:50:47;10.10;;;4.72;;
65799;SDS011;52544;48.116;11.660;2023-05-29T09:53:19;8.98;;;4.40;;
65799;SDS011;52544;48.116;11.660;2023-05-29T09:55:47;8.80;;;4.38;;
65799;SDS011;52544;48.116;11.660;2023-05-29T09:58:13;11.63;;;4.45;;
65799;SDS011;52544;48.116;11.660;2023-05-29T10:00:41;8.48;;;4.40;;
65799;SDS011;52544;48.116;11.660;2023-05-29T10:03:07;9.00;;;4.68;;
65799;SDS011;52544;48.116;11.660;2023-05-29T10:05:33;9.55;;;4.40;;
65799;SDS011;52544;48.116;11.660;2023-05-29T10:07:59;7.82;;;4.10;;
65799;SDS011;52544;48.116;11.660;2023-05-29T10:10:27;8.10;;;4.40;;
65799;SDS011;52544;48.116;11.660;2023-05-29T10:12:53;10.40;;;4.68;;
65799;SDS011;52544;48.116;11.660;2023-05-29T10:15:20;8.43;;;4.13;;
65799;SDS011;52544;48.116;11.660;2023-05-29T10:20:17;11.15;;;4.28;;
65799;SDS011;52544;48.116;11.660;2023-05-29T10:22:49;7.68;;;3.65;;
65799;SDS011;52544;48.116;11.660;2023-05-29T10:25:20;9.90;;;4.35;;
65799;SDS011;52544;48.116;11.660;2023-05-29T10:27:49;8.68;;;4.05;;
65799;SDS011;52544;48.116;11.660;2023-05-29T10:35:46;7.68;;;4.07;;
65799;SDS011;52544;48.116;11.660;2023-05-29T10:38:13;7.25;;;4.03;;
65799;SDS011;52544;48.116;11.660;2023-05-29T10:40:42;8.70;;;4.65;;
65799;SDS011;52544;48.116;11.660;2023-05-29T10:43:08;8.65;;;4.50;;
65799;SDS011;52544;48.116;11.660;2023-05-29T10:53:08;6.03;;;3.90;;
65799;SDS011;52544;48.116;11.660;2023-05-29T10:55:35;7.60;;;4.22;;
65799;SDS011;52544;48.116;11.660;2023-05-29T10:58:08;8.65;;;4.18;;
65799;SDS011;52544;48.116;11.660;2023-05-29T11:00:40;6.15;;;4.10;;
65799;SDS011;52544;48.116;11.660;2023-05-29T11:03:11;8.55;;;4.57;;
65799;SDS011;52544;48.116;11.660;2023-05-29T11:08:32;8.07;;;4.05;;
65799;SDS011;52544;48.116;11.660;2023-05-29T11:11:01;6.82;;;4.15;;
65799;SDS011;52544;48.116;11.660;2023-05-29T11:13:34;6.82;;;4.15;;
65799;SDS011;52544;48.116;11.660;2023-05-29T11:16:18;7.22;;;3.80;;
65799;SDS011;52544;48.116;11.660;2023-05-29T11:18:46;10.30;;;4.35;;
65799;SDS011;52544;48.116;11.660;2023-05-29T11:21:15;7.88;;;4.25;;
65799;SDS011;52544;48.116;11.660;2023-05-29T11:23:46;8.00;;;4.15;;
65799;SDS011;52544;48.116;11.660;2023-05-29T11:26:12;9.07;;;4.15;;
65799;SDS011;52544;48.116;11.660;2023-05-29T11:28:38;7.65;;;4.30;;
65799;SDS011;52544;48.116;11.660;2023-05-29T11:31:07;9.48;;;4.45;;
65799;SDS011;52544;48.116;11.660;2023-05-29T11:33:33;8.20;;;4.00;;
65799;SDS011;52544;48.116;11.660;2023-05-29T11:36:04;8.32;;;4.63;;
65799;SDS011;52544;48.116;11.660;2023-05-29T11:38:31;9.85;;;4.75;;
65799;SDS011;52544;48.116;11.660;2023-05-29T11:40:57;11.05;;;4.25;;
65799;SDS011;52544;48.116;11.660;2023-05-29T11:43:25;7.20;;;4.43;;
65799;SDS011;52544;48.116;11.660;2023-05-29T11:45:51;8.65;;;4.15;;
65799;SDS011;52544;48.116;11.660;2023-05-29T11:48:16;7.50;;;4.25;;
65799;SDS011;52544;48.116;11.660;2023-05-29T11:50:42;6.18;;;4.05;;
65799;SDS011;52544;48.116;11.660;2023-05-29T11:53:09;8.32;;;4.18;;
65799;SDS011;52544;48.116;11.660;2023-05-29T11:55:34;7.53;;;3.80;;
65799;SDS011;52544;48.116;11.660;2023-05-29T11:58:01;7.10;;;4.38;;
65799;SDS011;52544;48.116;11.660;2023-05-29T12:00:31;14.85;;;4.05;;
65799;SDS011;52544;48.116;11.660;2023-05-29T12:03:01;6.53;;;3.67;;
65799;SDS011;52544;48.116;11.660;2023-05-29T12:05:32;8.57;;;3.97;;
65799;SDS011;52544;48.116;11.660;2023-05-29T12:08:08;7.93;;;3.95;;
65799;SDS011;52544;48.116;11.660;2023-05-29T12:10:34;7.07;;;3.83;;
65799;SDS011;52544;48.116;11.660;2023-05-29T12:13:00;7.40;;;4.07;;
65799;SDS011;52544;48.116;11.660;2023-05-29T12:15:28;7.45;;;4.30;;
65799;SDS011;52544;48.116;11.660;2023-05-29T12:17:54;8.23;;;3.80;;
65799;SDS011;52544;48.116;11.660;2023-05-29T12:20:23;9.75;;;4.75;;
65799;SDS011;52544;48.116;11.660;2023-05-29T12:22:51;7.22;;;3.97;;
65799;SDS011;52544;48.116;11.660;2023-05-29T12:25:18;9.95;;;4.50;;
65799;SDS011;52544;48.116;11.660;2023-05-29T12:27:45;7.15;;;4.28;;
65799;SDS011;52544;48.116;11.660;2023-05-29T12:30:13;6.95;;;4.18;;
65799;SDS011;52544;48.116;11.660;2023-05-29T12:32:41;6.10;;;3.78;;
65799;SDS011;52544;48.116;11.660;2023-05-29T12:40:19;8.88;;;3.97;;
65799;SDS011;52544;48.116;11.660;2023-05-29T12:42:46;6.72;;;3.95;;
65799;SDS011;52544;48.116;11.660;2023-05-29T12:45:12;6.38;;;3.92;;
65799;SDS011;52544;48.116;11.660;2023-05-29T12:47:45;16.73;;;4.40;;
65799;SDS011;52544;48.116;11.660;2023-05-29T12:50:21;7.32;;;3.63;;
65799;SDS011;52544;48.116;11.660;2023-05-29T12:55:20;6.53;;;3.30;;
65799;SDS011;52544;48.116;11.660;2023-05-29T12:57:45;8.40;;;4.30;;
65799;SDS011;52544;48.116;11.660;2023-05-29T13:00:12;6.05;;;3.72;;
65799;SDS011;52544;48.116;11.660;2023-05-29T13:02:38;8.13;;;3.60;;
65799;SDS011;52544;48.116;11.660;2023-05-29T13:05:03;6.85;;;3.80;;
65799;SDS011;52544;48.116;11.660;2023-05-29T13:07:30;8.18;;;4.15;;
65799;SDS011;52544;48.116;11.660;2023-05-29T13:09:56;5.88;;;3.65;;
65799;SDS011;52544;48.116;11.660;2023-05-29T13:12:21;10.32;;;4.18;;
65799;SDS011;52544;48.116;11.660;2023-05-29T13:14:47;7.63;;;4.25;;
65799;SDS011;52544;48.116;11.660;2023-05-29T13:17:12;7.57;;;3.60;;
65799;SDS011;52544;48.116;11.660;2023-05-29T13:19:38;8.25;;;3.60;;
65799;SDS011;52544;48.116;11.660;2023-05-29T13:22:03;6.28;;;3.88;;
65799;SDS011;52544;48.116;11.660;2023-05-29T13:24:29;8.63;;;3.83;;
65799;SDS011;52544;48.116;11.660;2023-05-29T13:26:54;8.43;;;4.07;;
65799;SDS011;52544;48.116;11.660;2023-05-29T13:29:19;8.55;;;3.80;;
65799;SDS011;52544;48.116;11.660;2023-05-29T13:31:45;8.25;;;3.90;;
65799;SDS011;52544;48.116;11.660;2023-05-29T13:34:11;7.85;;;4.15;;
65799;SDS011;52544;48.116;11.660;2023-05-29T13:36:36;6.75;;;3.70;;
65799;SDS011;52544;48.116;11.660;2023-05-29T13:39:02;6.22;;;3.60;;
65799;SDS011;52544;48.116;11.660;2023-05-29T13:41:29;6.43;;;4.07;;
65799;SDS011;52544;48.116;11.660;2023-05-29T13:43:56;6.57;;;4.00;;
65799;SDS011;52544;48.116;11.660;2023-05-29T13:46:21;7.28;;;3.90;;
65799;SDS011;52544;48.116;11.660;2023-05-29T13:48:47;6.70;;;4.10;;
65799;SDS011;52544;48.116;11.660;2023-05-29T13:51:12;9.32;;;4.28;;
65799;SDS011;52544;48.116;11.660;2023-05-29T13:53:37;6.15;;;3.85;;
65799;SDS011;52544;48.116;11.660;2023-05-29T13:56:03;7.35;;;3.70;;
65799;SDS011;52544;48.116;11.660;2023-05-29T13:58:28;8.18;;;4.10;;
65799;SDS011;52544;48.116;11.660;2023-05-29T14:00:54;8.18;;;3.95;;
65799;SDS011;52544;48.116;11.660;2023-05-29T14:03:19;6.78;;;4.40;;
65799;SDS011;52544;48.116;11.660;2023-05-29T14:05:46;5.22;;;3.53;;
65799;SDS011;52544;48.116;11.660;2023-05-29T14:08:12;7.57;;;3.78;;
65799;SDS011;52544;48.116;11.660;2023-05-29T14:10:37;8.70;;;4.20;;
65799;SDS011;52544;48.116;11.660;2023-05-29T14:13:02;5.57;;;3.42;;
65799;SDS011;52544;48.116;11.660;2023-05-29T14:15:28;8.55;;;4.00;;
65799;SDS011;52544;48.116;11.660;2023-05-29T14:17:53;7.10;;;3.88;;
65799;SDS011;52544;48.116;11.660;2023-05-29T14:20:19;6.10;;;4.00;;
65799;SDS011;52544;48.116;11.660;2023-05-29T14:22:44;8.85;;;3.95;;
65799;SDS011;52544;48.116;11.660;2023-05-29T14:25:09;9.55;;;3.97;;
65799;SDS011;52544;48.116;11.660;2023-05-29T14:27:35;6.45;;;3.63;;
65799;SDS011;52544;48.116;11.660;2023-05-29T14:30:01;6.78;;;3.45;;
65799;SDS011;52544;48.116;11.660;2023-05-29T14:32:27;8.15;;;4.35;;
65799;SDS011;52544;48.116;11.660;2023-05-29T14:34:52;9.10;;;3.83;;
65799;SDS011;52544;48.116;11.660;2023-05-29T14:37:18;9.65;;;3.47;;
65799;SDS011;52544;48.116;11.660;2023-05-29T14:39:43;6.38;;;3.53;;
65799;SDS011;52544;48.116;11.660;2023-05-29T14:42:09;8.52;;;3.55;;
65799;SDS011;52544;48.116;11.660;2023-05-29T14:44:34;9.27;;;3.88;;
65799;SDS011;52544;48.116;11.660;2023-05-29T14:47:00;6.55;;;4.00;;
65799;SDS011;52544;48.116;11.660;2023-05-29T14:49:25;5.93;;;4.00;;
65799;SDS011;52544;48.116;11.660;2023-05-29T14:51:53;8.48;;;4.25;;
65799;SDS011;52544;48.116;11.660;2023-05-29T14:54:19;9.13;;;4.22;;
65799;SDS011;52544;48.116;11.660;2023-05-29T14:56:45;7.15;;;3.67;;
65799;SDS011;52544;48.116;11.660;2023-05-29T14:59:11;8.00;;;3.72;;
65799;SDS011;52544;48.116;11.660;2023-05-29T15:01:36;7.05;;;4.03;;
65799;SDS011;52544;48.116;11.660;2023-05-29T15:04:01;6.05;;;3.75;;
65799;SDS011;52544;48.116;11.660;2023-05-29T15:06:27;6.45;;;4.00;;